This is the latest recevied weather packets stored in our database for station/object SR9WXP. If no packets are shown the sender has not sent any weather packets the latest 1 day(s).
| Time | Temp. | Humidity | Pressure | Rain* | Wind** | Luminosity | Snow |
|---|---|---|---|---|---|---|---|
| 1778009571 | 9.44° C | 55% | 850.9 hPa | - | 3.58 m/s, 174° | - | - |
| 1778009511 | 9.44° C | 54% | 851 hPa | - | 3.13 m/s, 175° | - | - |
| 1778009451 | 9.44° C | 54% | 851 hPa | - | 2.68 m/s, 179° | - | - |
| 1778009207 | 10° C | 54% | 851 hPa | - | 3.58 m/s, 175° | - | - |
| 1778009088 | 10° C | 54% | 851 hPa | - | 2.68 m/s, 181° | - | - |
| 1778008969 | 10° C | 54% | 850.9 hPa | - | 2.68 m/s, 176° | - | - |
| 1778008907 | 10° C | 54% | 850.9 hPa | - | 2.68 m/s, 178° | - | - |
| 1778008848 | 10° C | 54% | 850.9 hPa | - | 2.24 m/s, 185° | - | - |
| 1778008728 | 10° C | 54% | 850.9 hPa | - | 2.68 m/s, 189° | - | - |
| 1778008604 | 10° C | 54% | 850.9 hPa | - | 3.13 m/s, 181° | - | - |
| 1778008487 | 10° C | 54% | 850.9 hPa | - | 3.58 m/s, 173° | - | - |
| 1778008365 | 10° C | 54% | 850.9 hPa | - | 3.13 m/s, 179° | - | - |
| 1778008305 | 10° C | 54% | 850.9 hPa | - | 2.68 m/s, 182° | - | - |
| 1778008245 | 10° C | 54% | 850.9 hPa | - | 3.13 m/s, 183° | - | - |
| 1778008125 | 10° C | 53% | 850.9 hPa | - | 3.58 m/s, 178° | - | - |
| 1778008001 | 10° C | 53% | 851 hPa | - | 3.13 m/s, 173° | - | - |
| 1778007772 | 10° C | 53% | 850.9 hPa | - | 2.24 m/s, 178° | - | - |
| 1778007701 | 10° C | 53% | 850.9 hPa | - | 2.24 m/s, 185° | - | - |
| 1778007643 | 10° C | 53% | 850.9 hPa | - | 2.68 m/s, 184° | - | - |
| 1778007398 | 10° C | 53% | 850.9 hPa | - | 3.13 m/s, 177° | - | - |
| 1778007278 | 10° C | 53% | 850.9 hPa | - | 3.13 m/s, 175° | - | - |
| 1778007159 | 10° C | 53% | 850.9 hPa | - | 3.13 m/s, 180° | - | - |
| 1778007098 | 10° C | 53% | 850.9 hPa | - | 2.68 m/s, 182° | - | - |
| 1778007038 | 10° C | 53% | 850.9 hPa | - | 2.68 m/s, 182° | - | - |
| 1778006919 | 10° C | 53% | 850.9 hPa | - | 3.13 m/s, 176° | - | - |
* Rain since midnight (hover to see other rain measurements)
** Current wind speed in m/s (hover to see current wind gust speed)